Terminal Aerodrome Forecast
Issued by NWS

Home | Current Version | Previous Version | Text Only | Print | Product List | Glossary On
Versions: 1 2 3 4 5 6 7 8 9 10 11 12 13 14 15 16 17 18 19
000
FTUS43 KGRB 242333
TAFMTW
TAF
KMTW 242333Z 2500/2524 24013G21KT P6SM VCSH SCT030 BKN100
     FM250200 27012KT P6SM SCT028 OVC050
      TEMPO 2502/2504 27015G25KT SHRA BKN018
     FM250400 26010G18KT P6SM SCT030 BKN060
     FM251500 31012G20KT P6SM BKN035
     FM252000 30013KT P6SM SCT040=

USA.gov is the U.S. government's official web portal to all federal, state and local government web resources and services.